sensor_id;sensor_type;location;lat;lon;timestamp;P1;durP1;ratioP1;P2;durP2;ratioP2
29568;SDS011;16501;51.462;14.346;2024-01-06T00:02:13;9.98;;;5.53;;
29568;SDS011;16501;51.462;14.346;2024-01-06T00:04:38;8.45;;;5.13;;
29568;SDS011;16501;51.462;14.346;2024-01-06T00:07:03;14.00;;;5.22;;
29568;SDS011;16501;51.462;14.346;2024-01-06T00:09:28;12.48;;;6.35;;
29568;SDS011;16501;51.462;14.346;2024-01-06T00:11:54;10.57;;;5.68;;
29568;SDS011;16501;51.462;14.346;2024-01-06T00:14:19;13.05;;;5.30;;
29568;SDS011;16501;51.462;14.346;2024-01-06T00:16:44;10.07;;;5.20;;
29568;SDS011;16501;51.462;14.346;2024-01-06T00:19:09;11.55;;;6.25;;
29568;SDS011;16501;51.462;14.346;2024-01-06T00:21:35;9.13;;;5.45;;
29568;SDS011;16501;51.462;14.346;2024-01-06T00:24:01;15.75;;;6.18;;
29568;SDS011;16501;51.462;14.346;2024-01-06T00:26:26;10.20;;;5.82;;
29568;SDS011;16501;51.462;14.346;2024-01-06T00:28:51;9.25;;;5.35;;
29568;SDS011;16501;51.462;14.346;2024-01-06T00:31:17;8.38;;;5.47;;
29568;SDS011;16501;51.462;14.346;2024-01-06T00:33:42;12.07;;;6.10;;
29568;SDS011;16501;51.462;14.346;2024-01-06T00:36:07;11.40;;;5.70;;
29568;SDS011;16501;51.462;14.346;2024-01-06T00:38:33;12.07;;;6.18;;
29568;SDS011;16501;51.462;14.346;2024-01-06T00:41:00;15.38;;;7.22;;
29568;SDS011;16501;51.462;14.346;2024-01-06T00:43:25;15.63;;;7.75;;
29568;SDS011;16501;51.462;14.346;2024-01-06T00:45:50;12.20;;;6.20;;
29568;SDS011;16501;51.462;14.346;2024-01-06T00:48:15;9.50;;;5.60;;
29568;SDS011;16501;51.462;14.346;2024-01-06T00:50:41;10.68;;;5.72;;
29568;SDS011;16501;51.462;14.346;2024-01-06T00:53:06;11.98;;;4.88;;
29568;SDS011;16501;51.462;14.346;2024-01-06T00:55:31;10.75;;;5.32;;
29568;SDS011;16501;51.462;14.346;2024-01-06T00:57:56;10.93;;;5.95;;
29568;SDS011;16501;51.462;14.346;2024-01-06T01:00:22;9.82;;;5.10;;
29568;SDS011;16501;51.462;14.346;2024-01-06T01:02:47;10.95;;;6.18;;
29568;SDS011;16501;51.462;14.346;2024-01-06T01:05:13;10.32;;;5.05;;
29568;SDS011;16501;51.462;14.346;2024-01-06T01:07:38;9.85;;;5.28;;
29568;SDS011;16501;51.462;14.346;2024-01-06T01:10:03;8.23;;;5.20;;
29568;SDS011;16501;51.462;14.346;2024-01-06T01:12:30;10.15;;;5.82;;
29568;SDS011;16501;51.462;14.346;2024-01-06T01:14:55;7.47;;;4.72;;
29568;SDS011;16501;51.462;14.346;2024-01-06T01:17:21;9.70;;;4.38;;
29568;SDS011;16501;51.462;14.346;2024-01-06T01:19:46;6.93;;;4.25;;
29568;SDS011;16501;51.462;14.346;2024-01-06T01:22:12;9.70;;;4.47;;
29568;SDS011;16501;51.462;14.346;2024-01-06T01:24:37;8.57;;;5.00;;
29568;SDS011;16501;51.462;14.346;2024-01-06T01:27:02;7.65;;;4.97;;
29568;SDS011;16501;51.462;14.346;2024-01-06T01:29:28;8.07;;;4.88;;
29568;SDS011;16501;51.462;14.346;2024-01-06T01:31:53;8.82;;;4.47;;
29568;SDS011;16501;51.462;14.346;2024-01-06T01:34:18;10.13;;;4.43;;
29568;SDS011;16501;51.462;14.346;2024-01-06T01:36:44;6.90;;;4.22;;
29568;SDS011;16501;51.462;14.346;2024-01-06T01:39:09;11.55;;;4.95;;
29568;SDS011;16501;51.462;14.346;2024-01-06T01:41:35;7.15;;;4.70;;
29568;SDS011;16501;51.462;14.346;2024-01-06T01:44:00;9.68;;;4.78;;
29568;SDS011;16501;51.462;14.346;2024-01-06T01:46:26;9.00;;;4.65;;
29568;SDS011;16501;51.462;14.346;2024-01-06T01:48:52;9.20;;;5.13;;
29568;SDS011;16501;51.462;14.346;2024-01-06T01:51:21;11.70;;;4.90;;
29568;SDS011;16501;51.462;14.346;2024-01-06T01:53:48;8.80;;;4.72;;
29568;SDS011;16501;51.462;14.346;2024-01-06T01:56:14;9.63;;;5.05;;
29568;SDS011;16501;51.462;14.346;2024-01-06T01:58:40;13.13;;;5.60;;
29568;SDS011;16501;51.462;14.346;2024-01-06T02:01:23;12.07;;;5.55;;
29568;SDS011;16501;51.462;14.346;2024-01-06T02:03:49;10.65;;;5.43;;
29568;SDS011;16501;51.462;14.346;2024-01-06T02:06:14;9.13;;;5.53;;
29568;SDS011;16501;51.462;14.346;2024-01-06T02:08:39;9.63;;;5.68;;
29568;SDS011;16501;51.462;14.346;2024-01-06T02:11:05;9.82;;;5.18;;
29568;SDS011;16501;51.462;14.346;2024-01-06T02:13:33;10.27;;;5.40;;
29568;SDS011;16501;51.462;14.346;2024-01-06T02:16:03;10.82;;;5.45;;
29568;SDS011;16501;51.462;14.346;2024-01-06T02:18:29;7.72;;;4.55;;
29568;SDS011;16501;51.462;14.346;2024-01-06T02:20:56;8.35;;;5.10;;
29568;SDS011;16501;51.462;14.346;2024-01-06T02:23:23;7.95;;;4.82;;
29568;SDS011;16501;51.462;14.346;2024-01-06T02:25:48;10.27;;;5.15;;
29568;SDS011;16501;51.462;14.346;2024-01-06T02:28:13;11.02;;;5.15;;
29568;SDS011;16501;51.462;14.346;2024-01-06T02:30:39;10.73;;;5.18;;
29568;SDS011;16501;51.462;14.346;2024-01-06T02:33:04;8.80;;;4.95;;
29568;SDS011;16501;51.462;14.346;2024-01-06T02:35:29;8.32;;;4.55;;
29568;SDS011;16501;51.462;14.346;2024-01-06T02:37:54;14.73;;;5.28;;
29568;SDS011;16501;51.462;14.346;2024-01-06T02:40:23;14.70;;;5.97;;
29568;SDS011;16501;51.462;14.346;2024-01-06T02:42:48;14.55;;;5.45;;
29568;SDS011;16501;51.462;14.346;2024-01-06T02:45:13;11.90;;;5.25;;
29568;SDS011;16501;51.462;14.346;2024-01-06T02:47:39;13.52;;;5.68;;
29568;SDS011;16501;51.462;14.346;2024-01-06T02:50:04;11.75;;;6.30;;
29568;SDS011;16501;51.462;14.346;2024-01-06T02:52:30;9.57;;;5.70;;
29568;SDS011;16501;51.462;14.346;2024-01-06T02:54:55;12.82;;;6.13;;
29568;SDS011;16501;51.462;14.346;2024-01-06T02:57:21;11.15;;;6.43;;
29568;SDS011;16501;51.462;14.346;2024-01-06T02:59:46;15.63;;;6.60;;
29568;SDS011;16501;51.462;14.346;2024-01-06T03:02:11;13.50;;;6.50;;
29568;SDS011;16501;51.462;14.346;2024-01-06T03:04:37;13.38;;;6.45;;
29568;SDS011;16501;51.462;14.346;2024-01-06T03:07:02;12.55;;;6.82;;
29568;SDS011;16501;51.462;14.346;2024-01-06T03:09:27;16.33;;;8.73;;
29568;SDS011;16501;51.462;14.346;2024-01-06T03:11:52;13.60;;;7.55;;
29568;SDS011;16501;51.462;14.346;2024-01-06T03:14:18;11.32;;;6.63;;
29568;SDS011;16501;51.462;14.346;2024-01-06T03:16:43;12.05;;;7.05;;
29568;SDS011;16501;51.462;14.346;2024-01-06T03:19:08;15.95;;;7.22;;
29568;SDS011;16501;51.462;14.346;2024-01-06T03:21:33;16.83;;;7.30;;
29568;SDS011;16501;51.462;14.346;2024-01-06T03:23:59;14.02;;;7.20;;
29568;SDS011;16501;51.462;14.346;2024-01-06T03:26:24;18.88;;;8.00;;
29568;SDS011;16501;51.462;14.346;2024-01-06T03:28:50;15.93;;;7.47;;
29568;SDS011;16501;51.462;14.346;2024-01-06T03:31:15;18.55;;;8.20;;
29568;SDS011;16501;51.462;14.346;2024-01-06T03:33:41;16.40;;;7.05;;
29568;SDS011;16501;51.462;14.346;2024-01-06T03:36:07;16.83;;;7.65;;
29568;SDS011;16501;51.462;14.346;2024-01-06T03:38:33;20.30;;;8.98;;
29568;SDS011;16501;51.462;14.346;2024-01-06T03:40:58;14.75;;;8.20;;
29568;SDS011;16501;51.462;14.346;2024-01-06T03:43:23;16.55;;;7.65;;
29568;SDS011;16501;51.462;14.346;2024-01-06T03:45:49;16.02;;;8.15;;
29568;SDS011;16501;51.462;14.346;2024-01-06T03:48:14;18.30;;;9.02;;
29568;SDS011;16501;51.462;14.346;2024-01-06T03:50:39;13.18;;;7.88;;
29568;SDS011;16501;51.462;14.346;2024-01-06T03:53:05;11.95;;;7.22;;
29568;SDS011;16501;51.462;14.346;2024-01-06T03:55:30;19.02;;;8.55;;
29568;SDS011;16501;51.462;14.346;2024-01-06T03:57:55;15.70;;;8.20;;
29568;SDS011;16501;51.462;14.346;2024-01-06T04:00:20;21.77;;;8.88;;
29568;SDS011;16501;51.462;14.346;2024-01-06T04:02:46;17.15;;;7.90;;
29568;SDS011;16501;51.462;14.346;2024-01-06T04:05:11;14.30;;;6.75;;
29568;SDS011;16501;51.462;14.346;2024-01-06T04:07:36;12.73;;;6.80;;
29568;SDS011;16501;51.462;14.346;2024-01-06T04:10:02;11.60;;;6.10;;
29568;SDS011;16501;51.462;14.346;2024-01-06T04:12:27;12.88;;;7.25;;
29568;SDS011;16501;51.462;14.346;2024-01-06T04:14:52;14.68;;;6.88;;
29568;SDS011;16501;51.462;14.346;2024-01-06T04:17:18;16.45;;;8.57;;
29568;SDS011;16501;51.462;14.346;2024-01-06T04:19:43;14.52;;;7.38;;
29568;SDS011;16501;51.462;14.346;2024-01-06T04:22:08;14.90;;;7.05;;
29568;SDS011;16501;51.462;14.346;2024-01-06T04:24:33;15.63;;;6.78;;
29568;SDS011;16501;51.462;14.346;2024-01-06T04:27:02;14.50;;;7.78;;
29568;SDS011;16501;51.462;14.346;2024-01-06T04:29:30;14.95;;;8.13;;
29568;SDS011;16501;51.462;14.346;2024-01-06T04:31:55;15.30;;;7.00;;
29568;SDS011;16501;51.462;14.346;2024-01-06T04:34:20;16.35;;;8.50;;
29568;SDS011;16501;51.462;14.346;2024-01-06T04:36:46;17.75;;;8.20;;
29568;SDS011;16501;51.462;14.346;2024-01-06T04:39:11;15.88;;;7.13;;
29568;SDS011;16501;51.462;14.346;2024-01-06T04:41:38;14.07;;;7.70;;
29568;SDS011;16501;51.462;14.346;2024-01-06T04:44:04;17.17;;;8.02;;
29568;SDS011;16501;51.462;14.346;2024-01-06T04:46:29;20.13;;;9.00;;
29568;SDS011;16501;51.462;14.346;2024-01-06T04:48:55;14.75;;;8.40;;
29568;SDS011;16501;51.462;14.346;2024-01-06T04:51:21;24.02;;;11.65;;
29568;SDS011;16501;51.462;14.346;2024-01-06T04:53:46;26.13;;;10.65;;
29568;SDS011;16501;51.462;14.346;2024-01-06T04:56:12;20.38;;;9.82;;
29568;SDS011;16501;51.462;14.346;2024-01-06T04:58:37;21.70;;;10.57;;
29568;SDS011;16501;51.462;14.346;2024-01-06T05:01:03;16.27;;;8.60;;
29568;SDS011;16501;51.462;14.346;2024-01-06T05:03:29;17.50;;;8.40;;
29568;SDS011;16501;51.462;14.346;2024-01-06T05:05:57;13.85;;;8.30;;
29568;SDS011;16501;51.462;14.346;2024-01-06T05:08:22;21.13;;;9.50;;
29568;SDS011;16501;51.462;14.346;2024-01-06T05:10:48;26.13;;;11.80;;
29568;SDS011;16501;51.462;14.346;2024-01-06T05:13:14;20.92;;;11.63;;
29568;SDS011;16501;51.462;14.346;2024-01-06T05:15:39;21.00;;;10.23;;
29568;SDS011;16501;51.462;14.346;2024-01-06T05:18:04;16.38;;;7.95;;
29568;SDS011;16501;51.462;14.346;2024-01-06T05:20:30;28.30;;;12.95;;
29568;SDS011;16501;51.462;14.346;2024-01-06T05:22:55;21.50;;;11.10;;
29568;SDS011;16501;51.462;14.346;2024-01-06T05:25:21;23.60;;;11.18;;
29568;SDS011;16501;51.462;14.346;2024-01-06T05:27:46;17.98;;;9.10;;
29568;SDS011;16501;51.462;14.346;2024-01-06T05:30:11;18.90;;;9.18;;
29568;SDS011;16501;51.462;14.346;2024-01-06T05:32:37;17.23;;;9.48;;
29568;SDS011;16501;51.462;14.346;2024-01-06T05:35:03;25.42;;;10.68;;
29568;SDS011;16501;51.462;14.346;2024-01-06T05:37:29;21.70;;;9.50;;
29568;SDS011;16501;51.462;14.346;2024-01-06T05:39:54;20.77;;;9.00;;
29568;SDS011;16501;51.462;14.346;2024-01-06T05:42:19;19.55;;;9.82;;
29568;SDS011;16501;51.462;14.346;2024-01-06T05:48:12;27.25;;;12.73;;
29568;SDS011;16501;51.462;14.346;2024-01-06T05:50:38;28.40;;;13.75;;
29568;SDS011;16501;51.462;14.346;2024-01-06T05:53:04;31.30;;;14.05;;
29568;SDS011;16501;51.462;14.346;2024-01-06T05:55:30;32.78;;;14.30;;
29568;SDS011;16501;51.462;14.346;2024-01-06T05:57:55;41.17;;;16.77;;
29568;SDS011;16501;51.462;14.346;2024-01-06T06:00:20;73.32;;;18.10;;
29568;SDS011;16501;51.462;14.346;2024-01-06T06:02:46;36.08;;;16.75;;
29568;SDS011;16501;51.462;14.346;2024-01-06T06:05:11;54.08;;;17.77;;
29568;SDS011;16501;51.462;14.346;2024-01-06T06:07:36;70.75;;;18.23;;
29568;SDS011;16501;51.462;14.346;2024-01-06T06:10:05;77.95;;;18.85;;
29568;SDS011;16501;51.462;14.346;2024-01-06T06:12:34;38.75;;;16.58;;
29568;SDS011;16501;51.462;14.346;2024-01-06T06:14:59;43.70;;;17.10;;
29568;SDS011;16501;51.462;14.346;2024-01-06T06:17:25;36.35;;;16.85;;
29568;SDS011;16501;51.462;14.346;2024-01-06T06:19:50;50.72;;;16.70;;
29568;SDS011;16501;51.462;14.346;2024-01-06T06:22:15;41.00;;;16.52;;
29568;SDS011;16501;51.462;14.346;2024-01-06T06:24:41;44.78;;;17.08;;
29568;SDS011;16501;51.462;14.346;2024-01-06T06:27:06;38.83;;;16.90;;
29568;SDS011;16501;51.462;14.346;2024-01-06T06:29:31;37.75;;;16.27;;
29568;SDS011;16501;51.462;14.346;2024-01-06T06:31:57;67.25;;;18.23;;
29568;SDS011;16501;51.462;14.346;2024-01-06T06:34:22;60.95;;;17.58;;
29568;SDS011;16501;51.462;14.346;2024-01-06T06:36:48;39.08;;;17.95;;
29568;SDS011;16501;51.462;14.346;2024-01-06T06:39:13;59.72;;;18.65;;
29568;SDS011;16501;51.462;14.346;2024-01-06T06:41:38;41.28;;;17.48;;
29568;SDS011;16501;51.462;14.346;2024-01-06T06:44:04;63.78;;;19.40;;
29568;SDS011;16501;51.462;14.346;2024-01-06T06:46:29;46.08;;;18.38;;
29568;SDS011;16501;51.462;14.346;2024-01-06T06:48:54;76.00;;;20.45;;
29568;SDS011;16501;51.462;14.346;2024-01-06T06:51:20;54.00;;;19.30;;
29568;SDS011;16501;51.462;14.346;2024-01-06T06:53:49;48.67;;;20.50;;
29568;SDS011;16501;51.462;14.346;2024-01-06T06:56:15;50.92;;;20.67;;
29568;SDS011;16501;51.462;14.346;2024-01-06T06:58:42;83.20;;;22.13;;
29568;SDS011;16501;51.462;14.346;2024-01-06T07:01:07;80.05;;;21.30;;
29568;SDS011;16501;51.462;14.346;2024-01-06T07:03:32;68.63;;;20.35;;
29568;SDS011;16501;51.462;14.346;2024-01-06T07:05:57;42.80;;;19.35;;
29568;SDS011;16501;51.462;14.346;2024-01-06T07:08:23;85.00;;;21.67;;
29568;SDS011;16501;51.462;14.346;2024-01-06T07:10:48;49.15;;;20.08;;
29568;SDS011;16501;51.462;14.346;2024-01-06T07:13:13;62.75;;;21.67;;
29568;SDS011;16501;51.462;14.346;2024-01-06T07:15:38;46.72;;;21.10;;
29568;SDS011;16501;51.462;14.346;2024-01-06T07:18:04;55.28;;;19.02;;
29568;SDS011;16501;51.462;14.346;2024-01-06T07:20:30;65.20;;;19.85;;
29568;SDS011;16501;51.462;14.346;2024-01-06T07:22:55;51.85;;;19.50;;
29568;SDS011;16501;51.462;14.346;2024-01-06T07:25:20;40.60;;;20.00;;
29568;SDS011;16501;51.462;14.346;2024-01-06T07:27:45;43.63;;;20.08;;
29568;SDS011;16501;51.462;14.346;2024-01-06T07:30:11;42.20;;;19.05;;
29568;SDS011;16501;51.462;14.346;2024-01-06T07:32:36;50.78;;;21.83;;
29568;SDS011;16501;51.462;14.346;2024-01-06T07:35:02;53.63;;;21.17;;
29568;SDS011;16501;51.462;14.346;2024-01-06T07:37:27;45.22;;;19.95;;
29568;SDS011;16501;51.462;14.346;2024-01-06T07:39:53;54.17;;;20.98;;
29568;SDS011;16501;51.462;14.346;2024-01-06T07:42:18;44.63;;;20.40;;
29568;SDS011;16501;51.462;14.346;2024-01-06T07:44:43;46.60;;;21.50;;
29568;SDS011;16501;51.462;14.346;2024-01-06T07:47:09;40.72;;;19.17;;
29568;SDS011;16501;51.462;14.346;2024-01-06T07:49:34;52.55;;;22.38;;
29568;SDS011;16501;51.462;14.346;2024-01-06T07:52:00;53.72;;;24.73;;
29568;SDS011;16501;51.462;14.346;2024-01-06T07:54:34;57.22;;;26.65;;
29568;SDS011;16501;51.462;14.346;2024-01-06T07:57:01;54.70;;;25.73;;
29568;SDS011;16501;51.462;14.346;2024-01-06T07:59:28;48.42;;;21.35;;
29568;SDS011;16501;51.462;14.346;2024-01-06T08:01:55;67.68;;;27.00;;
29568;SDS011;16501;51.462;14.346;2024-01-06T08:04:27;72.38;;;23.83;;
29568;SDS011;16501;51.462;14.346;2024-01-06T08:06:52;64.28;;;25.13;;
29568;SDS011;16501;51.462;14.346;2024-01-06T08:09:20;67.82;;;23.83;;
29568;SDS011;16501;51.462;14.346;2024-01-06T08:12:01;53.92;;;22.67;;
29568;SDS011;16501;51.462;14.346;2024-01-06T08:14:28;61.60;;;26.63;;
29568;SDS011;16501;51.462;14.346;2024-01-06T08:16:53;69.68;;;26.38;;
29568;SDS011;16501;51.462;14.346;2024-01-06T08:19:25;65.13;;;26.67;;
29568;SDS011;16501;51.462;14.346;2024-01-06T08:21:53;71.10;;;28.73;;
29568;SDS011;16501;51.462;14.346;2024-01-06T08:24:19;60.65;;;28.63;;
29568;SDS011;16501;51.462;14.346;2024-01-06T08:26:46;71.07;;;30.05;;
29568;SDS011;16501;51.462;14.346;2024-01-06T08:29:12;70.53;;;29.52;;
29568;SDS011;16501;51.462;14.346;2024-01-06T08:31:39;64.07;;;26.38;;
29568;SDS011;16501;51.462;14.346;2024-01-06T08:34:04;68.35;;;29.65;;
29568;SDS011;16501;51.462;14.346;2024-01-06T08:36:31;71.55;;;31.50;;
29568;SDS011;16501;51.462;14.346;2024-01-06T08:38:56;68.47;;;29.20;;
29568;SDS011;16501;51.462;14.346;2024-01-06T08:41:21;66.50;;;30.00;;
29568;SDS011;16501;51.462;14.346;2024-01-06T08:43:47;73.90;;;31.92;;
29568;SDS011;16501;51.462;14.346;2024-01-06T08:46:12;69.05;;;28.45;;
29568;SDS011;16501;51.462;14.346;2024-01-06T08:48:37;65.47;;;29.52;;
29568;SDS011;16501;51.462;14.346;2024-01-06T08:51:02;74.93;;;30.48;;
29568;SDS011;16501;51.462;14.346;2024-01-06T08:53:28;68.15;;;29.27;;
29568;SDS011;16501;51.462;14.346;2024-01-06T08:55:53;68.50;;;29.50;;
29568;SDS011;16501;51.462;14.346;2024-01-06T08:58:18;73.68;;;30.63;;
29568;SDS011;16501;51.462;14.346;2024-01-06T09:00:44;68.22;;;29.42;;
29568;SDS011;16501;51.462;14.346;2024-01-06T09:03:09;71.75;;;29.40;;
29568;SDS011;16501;51.462;14.346;2024-01-06T09:05:34;68.07;;;29.33;;
29568;SDS011;16501;51.462;14.346;2024-01-06T09:08:00;76.72;;;31.08;;
29568;SDS011;16501;51.462;14.346;2024-01-06T09:10:25;62.75;;;28.88;;
29568;SDS011;16501;51.462;14.346;2024-01-06T09:12:50;73.00;;;29.98;;
29568;SDS011;16501;51.462;14.346;2024-01-06T09:15:15;71.13;;;29.92;;
29568;SDS011;16501;51.462;14.346;2024-01-06T09:17:41;71.13;;;28.52;;
29568;SDS011;16501;51.462;14.346;2024-01-06T09:20:06;75.95;;;29.05;;
29568;SDS011;16501;51.462;14.346;2024-01-06T09:22:32;69.97;;;31.05;;
29568;SDS011;16501;51.462;14.346;2024-01-06T09:24:57;64.47;;;28.98;;
29568;SDS011;16501;51.462;14.346;2024-01-06T09:27:42;72.70;;;28.80;;
29568;SDS011;16501;51.462;14.346;2024-01-06T09:30:07;82.55;;;30.60;;
29568;SDS011;16501;51.462;14.346;2024-01-06T09:32:33;66.88;;;27.52;;
29568;SDS011;16501;51.462;14.346;2024-01-06T09:34:58;69.10;;;28.88;;
29568;SDS011;16501;51.462;14.346;2024-01-06T09:37:24;70.95;;;29.95;;
29568;SDS011;16501;51.462;14.346;2024-01-06T09:39:49;70.70;;;30.40;;
29568;SDS011;16501;51.462;14.346;2024-01-06T09:42:15;74.07;;;28.38;;
29568;SDS011;16501;51.462;14.346;2024-01-06T09:44:41;73.13;;;30.40;;
29568;SDS011;16501;51.462;14.346;2024-01-06T09:47:06;66.45;;;28.80;;
29568;SDS011;16501;51.462;14.346;2024-01-06T09:49:36;66.63;;;30.23;;
29568;SDS011;16501;51.462;14.346;2024-01-06T09:52:13;73.63;;;30.13;;
29568;SDS011;16501;51.462;14.346;2024-01-06T09:54:46;111.32;;;51.55;;
29568;SDS011;16501;51.462;14.346;2024-01-06T09:57:16;80.38;;;33.83;;
29568;SDS011;16501;51.462;14.346;2024-01-06T09:59:43;72.18;;;30.42;;
29568;SDS011;16501;51.462;14.346;2024-01-06T10:02:09;74.28;;;29.92;;
29568;SDS011;16501;51.462;14.346;2024-01-06T10:04:39;70.85;;;29.55;;
29568;SDS011;16501;51.462;14.346;2024-01-06T10:07:04;70.75;;;29.65;;
29568;SDS011;16501;51.462;14.346;2024-01-06T10:09:30;67.07;;;27.90;;
29568;SDS011;16501;51.462;14.346;2024-01-06T10:11:55;68.13;;;28.85;;
29568;SDS011;16501;51.462;14.346;2024-01-06T10:14:24;80.57;;;30.90;;
29568;SDS011;16501;51.462;14.346;2024-01-06T10:16:53;64.53;;;30.30;;
29568;SDS011;16501;51.462;14.346;2024-01-06T10:19:19;70.82;;;28.48;;
29568;SDS011;16501;51.462;14.346;2024-01-06T10:21:44;69.60;;;31.30;;
29568;SDS011;16501;51.462;14.346;2024-01-06T10:24:10;70.20;;;28.85;;
29568;SDS011;16501;51.462;14.346;2024-01-06T10:26:35;70.07;;;29.52;;
29568;SDS011;16501;51.462;14.346;2024-01-06T10:29:01;83.57;;;32.33;;
29568;SDS011;16501;51.462;14.346;2024-01-06T10:31:31;70.57;;;29.73;;
29568;SDS011;16501;51.462;14.346;2024-01-06T10:33:56;72.30;;;30.85;;
29568;SDS011;16501;51.462;14.346;2024-01-06T10:36:24;71.30;;;31.33;;
29568;SDS011;16501;51.462;14.346;2024-01-06T10:38:52;69.03;;;30.45;;
29568;SDS011;16501;51.462;14.346;2024-01-06T10:41:17;74.97;;;29.85;;
29568;SDS011;16501;51.462;14.346;2024-01-06T10:43:44;67.30;;;30.38;;
29568;SDS011;16501;51.462;14.346;2024-01-06T10:46:10;69.90;;;31.77;;
29568;SDS011;16501;51.462;14.346;2024-01-06T10:48:36;72.43;;;30.80;;
29568;SDS011;16501;51.462;14.346;2024-01-06T10:51:09;73.20;;;30.92;;
29568;SDS011;16501;51.462;14.346;2024-01-06T10:53:36;76.88;;;33.95;;
29568;SDS011;16501;51.462;14.346;2024-01-06T10:56:04;79.70;;;33.95;;
29568;SDS011;16501;51.462;14.346;2024-01-06T10:58:33;84.10;;;36.05;;
29568;SDS011;16501;51.462;14.346;2024-01-06T11:01:08;83.90;;;34.72;;
29568;SDS011;16501;51.462;14.346;2024-01-06T11:03:36;79.95;;;33.35;;
29568;SDS011;16501;51.462;14.346;2024-01-06T11:06:02;78.97;;;34.08;;
29568;SDS011;16501;51.462;14.346;2024-01-06T11:08:29;81.13;;;31.88;;
29568;SDS011;16501;51.462;14.346;2024-01-06T11:10:57;76.32;;;33.95;;
29568;SDS011;16501;51.462;14.346;2024-01-06T11:13:23;79.18;;;34.53;;
29568;SDS011;16501;51.462;14.346;2024-01-06T11:15:49;85.03;;;38.00;;
29568;SDS011;16501;51.462;14.346;2024-01-06T11:18:30;104.95;;;43.30;;
29568;SDS011;16501;51.462;14.346;2024-01-06T11:23:42;74.07;;;33.95;;
29568;SDS011;16501;51.462;14.346;2024-01-06T11:26:07;80.60;;;33.47;;
29568;SDS011;16501;51.462;14.346;2024-01-06T11:28:43;90.90;;;37.55;;
29568;SDS011;16501;51.462;14.346;2024-01-06T11:31:09;90.13;;;37.75;;
29568;SDS011;16501;51.462;14.346;2024-01-06T11:33:44;80.30;;;35.20;;
29568;SDS011;16501;51.462;14.346;2024-01-06T11:36:17;118.68;;;44.75;;
29568;SDS011;16501;51.462;14.346;2024-01-06T11:38:45;85.97;;;37.47;;
29568;SDS011;16501;51.462;14.346;2024-01-06T11:41:44;86.32;;;36.35;;
29568;SDS011;16501;51.462;14.346;2024-01-06T11:44:13;83.30;;;36.92;;
29568;SDS011;16501;51.462;14.346;2024-01-06T11:46:38;81.82;;;37.00;;
29568;SDS011;16501;51.462;14.346;2024-01-06T11:49:06;87.85;;;36.47;;
29568;SDS011;16501;51.462;14.346;2024-01-06T11:51:39;97.18;;;39.22;;
29568;SDS011;16501;51.462;14.346;2024-01-06T11:54:04;80.38;;;36.42;;
29568;SDS011;16501;51.462;14.346;2024-01-06T11:56:30;86.82;;;36.50;;
29568;SDS011;16501;51.462;14.346;2024-01-06T11:58:55;91.47;;;37.45;;
29568;SDS011;16501;51.462;14.346;2024-01-06T12:01:21;88.70;;;37.83;;
29568;SDS011;16501;51.462;14.346;2024-01-06T12:03:46;77.10;;;35.90;;
29568;SDS011;16501;51.462;14.346;2024-01-06T12:06:11;89.72;;;39.03;;
29568;SDS011;16501;51.462;14.346;2024-01-06T12:08:37;87.97;;;37.67;;
29568;SDS011;16501;51.462;14.346;2024-01-06T12:11:03;92.03;;;37.83;;
29568;SDS011;16501;51.462;14.346;2024-01-06T12:13:28;93.53;;;39.00;;
29568;SDS011;16501;51.462;14.346;2024-01-06T12:15:54;96.80;;;37.95;;
29568;SDS011;16501;51.462;14.346;2024-01-06T12:18:22;96.53;;;38.20;;
29568;SDS011;16501;51.462;14.346;2024-01-06T12:20:49;90.32;;;38.83;;
29568;SDS011;16501;51.462;14.346;2024-01-06T12:23:23;86.43;;;36.30;;
29568;SDS011;16501;51.462;14.346;2024-01-06T12:25:52;79.90;;;35.00;;
29568;SDS011;16501;51.462;14.346;2024-01-06T12:28:18;89.70;;;35.55;;
29568;SDS011;16501;51.462;14.346;2024-01-06T12:30:44;80.43;;;34.60;;
29568;SDS011;16501;51.462;14.346;2024-01-06T12:33:09;83.80;;;34.03;;
29568;SDS011;16501;51.462;14.346;2024-01-06T12:35:35;87.45;;;35.63;;
29568;SDS011;16501;51.462;14.346;2024-01-06T12:38:01;87.15;;;35.97;;
29568;SDS011;16501;51.462;14.346;2024-01-06T12:40:33;82.75;;;35.90;;
29568;SDS011;16501;51.462;14.346;2024-01-06T12:43:01;84.68;;;36.78;;
29568;SDS011;16501;51.462;14.346;2024-01-06T12:45:27;85.75;;;35.00;;
29568;SDS011;16501;51.462;14.346;2024-01-06T12:47:52;86.22;;;35.13;;
29568;SDS011;16501;51.462;14.346;2024-01-06T12:50:19;81.53;;;34.25;;
29568;SDS011;16501;51.462;14.346;2024-01-06T12:52:44;79.72;;;34.22;;
29568;SDS011;16501;51.462;14.346;2024-01-06T12:55:10;88.60;;;36.53;;
29568;SDS011;16501;51.462;14.346;2024-01-06T12:57:36;86.45;;;36.30;;
29568;SDS011;16501;51.462;14.346;2024-01-06T13:00:07;88.47;;;35.67;;
29568;SDS011;16501;51.462;14.346;2024-01-06T13:02:35;80.80;;;34.25;;
29568;SDS011;16501;51.462;14.346;2024-01-06T13:05:02;76.10;;;33.38;;
29568;SDS011;16501;51.462;14.346;2024-01-06T13:07:27;85.85;;;35.10;;
29568;SDS011;16501;51.462;14.346;2024-01-06T13:09:52;81.95;;;34.22;;
29568;SDS011;16501;51.462;14.346;2024-01-06T13:12:18;81.50;;;36.15;;
29568;SDS011;16501;51.462;14.346;2024-01-06T13:14:43;87.00;;;35.15;;
29568;SDS011;16501;51.462;14.346;2024-01-06T13:17:12;89.88;;;36.40;;
29568;SDS011;16501;51.462;14.346;2024-01-06T13:19:39;80.13;;;35.78;;
29568;SDS011;16501;51.462;14.346;2024-01-06T13:22:04;79.50;;;35.13;;
29568;SDS011;16501;51.462;14.346;2024-01-06T13:24:29;86.15;;;34.22;;
29568;SDS011;16501;51.462;14.346;2024-01-06T13:26:55;73.75;;;33.92;;
29568;SDS011;16501;51.462;14.346;2024-01-06T13:29:23;88.35;;;34.75;;
29568;SDS011;16501;51.462;14.346;2024-01-06T13:31:48;83.60;;;35.00;;
29568;SDS011;16501;51.462;14.346;2024-01-06T13:34:14;81.40;;;34.20;;
29568;SDS011;16501;51.462;14.346;2024-01-06T13:36:39;79.68;;;35.25;;
29568;SDS011;16501;51.462;14.346;2024-01-06T13:39:06;82.60;;;35.10;;
29568;SDS011;16501;51.462;14.346;2024-01-06T13:41:31;72.72;;;33.40;;
29568;SDS011;16501;51.462;14.346;2024-01-06T13:43:57;89.28;;;34.88;;
29568;SDS011;16501;51.462;14.346;2024-01-06T13:46:23;88.03;;;36.65;;
29568;SDS011;16501;51.462;14.346;2024-01-06T13:48:49;79.80;;;34.25;;
29568;SDS011;16501;51.462;14.346;2024-01-06T13:51:15;81.75;;;35.45;;
29568;SDS011;16501;51.462;14.346;2024-01-06T13:53:41;90.53;;;35.45;;
29568;SDS011;16501;51.462;14.346;2024-01-06T13:56:06;100.60;;;40.30;;
29568;SDS011;16501;51.462;14.346;2024-01-06T13:58:31;92.30;;;36.65;;
29568;SDS011;16501;51.462;14.346;2024-01-06T14:00:57;90.65;;;37.20;;
29568;SDS011;16501;51.462;14.346;2024-01-06T14:03:22;87.85;;;36.47;;
29568;SDS011;16501;51.462;14.346;2024-01-06T14:05:48;91.78;;;37.55;;
29568;SDS011;16501;51.462;14.346;2024-01-06T14:08:14;90.00;;;37.75;;
29568;SDS011;16501;51.462;14.346;2024-01-06T14:10:39;79.82;;;36.65;;
29568;SDS011;16501;51.462;14.346;2024-01-06T14:13:04;98.65;;;39.65;;
29568;SDS011;16501;51.462;14.346;2024-01-06T14:15:30;107.35;;;43.42;;